Terminal Aerodrome Forecast
Issued by NWS

Home | Current Version | Previous Version | Text Only | Print | Product List | Glossary On
Versions: 1 2 3 4 5 6 7 8 9 10 11 12 13 14 15 16 17 18
000
FTUS41 KGYX 020525
TAFAUG
TAF
KAUG 020525Z 0206/0306 21003KT P6SM SCT250
      TEMPO 0208/0212 4SM BR SCT001
     FM021500 24006KT P6SM SCT250
     FM030000 VRB03KT P6SM SCT250=

USA.gov is the U.S. government's official web portal to all federal, state and local government web resources and services.